sensor_id;sensor_type;location;lat;lon;timestamp;P1;durP1;ratioP1;P2;durP2;ratioP2
21743;SDS011;11034;48.556;9.342;2023-05-13T00:02:15;5.30;;;4.30;;
21743;SDS011;11034;48.556;9.342;2023-05-13T00:04:43;10.40;;;4.57;;
21743;SDS011;11034;48.556;9.342;2023-05-13T00:07:11;7.97;;;4.47;;
21743;SDS011;11034;48.556;9.342;2023-05-13T00:09:41;5.65;;;4.32;;
21743;SDS011;11034;48.556;9.342;2023-05-13T00:12:09;5.00;;;3.92;;
21743;SDS011;11034;48.556;9.342;2023-05-13T00:14:37;6.00;;;4.32;;
21743;SDS011;11034;48.556;9.342;2023-05-13T00:17:05;4.30;;;3.90;;
21743;SDS011;11034;48.556;9.342;2023-05-13T00:19:33;4.50;;;4.10;;
21743;SDS011;11034;48.556;9.342;2023-05-13T00:22:01;7.13;;;4.22;;
21743;SDS011;11034;48.556;9.342;2023-05-13T00:24:30;5.82;;;4.25;;
21743;SDS011;11034;48.556;9.342;2023-05-13T00:26:59;4.97;;;4.50;;
21743;SDS011;11034;48.556;9.342;2023-05-13T00:29:27;5.70;;;4.32;;
21743;SDS011;11034;48.556;9.342;2023-05-13T00:31:58;5.07;;;4.57;;
21743;SDS011;11034;48.556;9.342;2023-05-13T00:34:26;5.43;;;4.57;;
21743;SDS011;11034;48.556;9.342;2023-05-13T00:36:54;6.43;;;4.72;;
21743;SDS011;11034;48.556;9.342;2023-05-13T00:39:23;6.78;;;4.97;;
21743;SDS011;11034;48.556;9.342;2023-05-13T00:41:51;6.93;;;5.10;;
21743;SDS011;11034;48.556;9.342;2023-05-13T00:44:20;6.47;;;4.40;;
21743;SDS011;11034;48.556;9.342;2023-05-13T00:46:48;5.32;;;4.65;;
21743;SDS011;11034;48.556;9.342;2023-05-13T00:49:16;5.50;;;4.75;;
21743;SDS011;11034;48.556;9.342;2023-05-13T00:51:45;6.38;;;4.38;;
21743;SDS011;11034;48.556;9.342;2023-05-13T00:54:13;6.88;;;4.47;;
21743;SDS011;11034;48.556;9.342;2023-05-13T00:56:41;6.00;;;4.60;;
21743;SDS011;11034;48.556;9.342;2023-05-13T00:59:10;5.35;;;4.50;;
21743;SDS011;11034;48.556;9.342;2023-05-13T01:01:42;5.82;;;4.78;;
21743;SDS011;11034;48.556;9.342;2023-05-13T01:04:16;5.57;;;4.95;;
21743;SDS011;11034;48.556;9.342;2023-05-13T01:06:56;5.75;;;5.03;;
21743;SDS011;11034;48.556;9.342;2023-05-13T01:09:32;6.13;;;5.00;;
21743;SDS011;11034;48.556;9.342;2023-05-13T01:12:10;6.40;;;5.20;;
21743;SDS011;11034;48.556;9.342;2023-05-13T01:14:47;6.53;;;5.50;;
21743;SDS011;11034;48.556;9.342;2023-05-13T01:17:23;6.30;;;5.50;;
21743;SDS011;11034;48.556;9.342;2023-05-13T01:19:58;10.20;;;5.35;;
21743;SDS011;11034;48.556;9.342;2023-05-13T01:22:30;7.03;;;5.55;;
21743;SDS011;11034;48.556;9.342;2023-05-13T01:24:58;8.60;;;5.93;;
21743;SDS011;11034;48.556;9.342;2023-05-13T01:27:27;7.13;;;5.60;;
21743;SDS011;11034;48.556;9.342;2023-05-13T01:29:55;7.90;;;5.57;;
21743;SDS011;11034;48.556;9.342;2023-05-13T01:32:23;6.82;;;5.65;;
21743;SDS011;11034;48.556;9.342;2023-05-13T01:34:52;9.65;;;5.63;;
21743;SDS011;11034;48.556;9.342;2023-05-13T01:37:21;7.05;;;5.30;;
21743;SDS011;11034;48.556;9.342;2023-05-13T01:39:51;7.50;;;5.63;;
21743;SDS011;11034;48.556;9.342;2023-05-13T01:42:19;7.03;;;5.95;;
21743;SDS011;11034;48.556;9.342;2023-05-13T01:44:49;10.98;;;5.88;;
21743;SDS011;11034;48.556;9.342;2023-05-13T01:47:17;7.18;;;5.65;;
21743;SDS011;11034;48.556;9.342;2023-05-13T01:49:46;8.30;;;5.78;;
21743;SDS011;11034;48.556;9.342;2023-05-13T01:52:14;12.00;;;5.78;;
21743;SDS011;11034;48.556;9.342;2023-05-13T01:54:42;7.03;;;5.07;;
21743;SDS011;11034;48.556;9.342;2023-05-13T01:57:11;6.32;;;5.72;;
21743;SDS011;11034;48.556;9.342;2023-05-13T01:59:39;7.80;;;5.60;;
21743;SDS011;11034;48.556;9.342;2023-05-13T02:02:07;7.72;;;6.28;;
21743;SDS011;11034;48.556;9.342;2023-05-13T02:04:35;9.50;;;6.45;;
21743;SDS011;11034;48.556;9.342;2023-05-13T02:07:04;6.95;;;6.22;;
21743;SDS011;11034;48.556;9.342;2023-05-13T02:09:32;9.90;;;6.50;;
21743;SDS011;11034;48.556;9.342;2023-05-13T02:12:00;8.80;;;7.05;;
21743;SDS011;11034;48.556;9.342;2023-05-13T02:14:31;9.45;;;6.90;;
21743;SDS011;11034;48.556;9.342;2023-05-13T02:16:59;10.07;;;7.55;;
21743;SDS011;11034;48.556;9.342;2023-05-13T02:19:28;7.88;;;6.88;;
21743;SDS011;11034;48.556;9.342;2023-05-13T02:21:58;10.50;;;7.20;;
21743;SDS011;11034;48.556;9.342;2023-05-13T02:24:27;7.35;;;6.60;;
21743;SDS011;11034;48.556;9.342;2023-05-13T02:26:56;7.95;;;7.15;;
21743;SDS011;11034;48.556;9.342;2023-05-13T02:29:24;8.38;;;7.25;;
21743;SDS011;11034;48.556;9.342;2023-05-13T02:31:53;9.60;;;7.10;;
21743;SDS011;11034;48.556;9.342;2023-05-13T02:34:22;8.75;;;7.13;;
21743;SDS011;11034;48.556;9.342;2023-05-13T02:36:50;9.55;;;6.85;;
21743;SDS011;11034;48.556;9.342;2023-05-13T02:39:18;9.30;;;6.20;;
21743;SDS011;11034;48.556;9.342;2023-05-13T02:41:46;8.02;;;6.25;;
21743;SDS011;11034;48.556;9.342;2023-05-13T02:44:14;9.48;;;6.90;;
21743;SDS011;11034;48.556;9.342;2023-05-13T02:46:42;8.50;;;6.45;;
21743;SDS011;11034;48.556;9.342;2023-05-13T02:49:12;11.52;;;6.65;;
21743;SDS011;11034;48.556;9.342;2023-05-13T02:51:40;7.90;;;6.47;;
21743;SDS011;11034;48.556;9.342;2023-05-13T02:54:08;12.95;;;6.72;;
21743;SDS011;11034;48.556;9.342;2023-05-13T02:56:36;8.32;;;6.18;;
21743;SDS011;11034;48.556;9.342;2023-05-13T02:59:04;7.38;;;6.40;;
21743;SDS011;11034;48.556;9.342;2023-05-13T03:01:32;9.43;;;6.72;;
21743;SDS011;11034;48.556;9.342;2023-05-13T03:04:00;8.90;;;6.80;;
21743;SDS011;11034;48.556;9.342;2023-05-13T03:06:30;10.40;;;6.60;;
21743;SDS011;11034;48.556;9.342;2023-05-13T03:08:58;6.75;;;5.82;;
21743;SDS011;11034;48.556;9.342;2023-05-13T03:11:26;9.30;;;6.57;;
21743;SDS011;11034;48.556;9.342;2023-05-13T03:13:54;10.00;;;6.32;;
21743;SDS011;11034;48.556;9.342;2023-05-13T03:16:22;8.88;;;6.85;;
21743;SDS011;11034;48.556;9.342;2023-05-13T03:18:50;8.07;;;6.25;;
21743;SDS011;11034;48.556;9.342;2023-05-13T03:21:18;8.27;;;7.10;;
21743;SDS011;11034;48.556;9.342;2023-05-13T03:23:48;7.80;;;6.72;;
21743;SDS011;11034;48.556;9.342;2023-05-13T03:26:16;11.38;;;6.90;;
21743;SDS011;11034;48.556;9.342;2023-05-13T03:28:45;7.97;;;6.20;;
21743;SDS011;11034;48.556;9.342;2023-05-13T03:31:12;8.60;;;6.50;;
21743;SDS011;11034;48.556;9.342;2023-05-13T03:33:41;8.50;;;6.45;;
21743;SDS011;11034;48.556;9.342;2023-05-13T03:36:09;8.57;;;6.70;;
21743;SDS011;11034;48.556;9.342;2023-05-13T03:38:37;7.28;;;6.30;;
21743;SDS011;11034;48.556;9.342;2023-05-13T03:41:07;9.60;;;7.35;;
21743;SDS011;11034;48.556;9.342;2023-05-13T03:43:35;10.30;;;6.82;;
21743;SDS011;11034;48.556;9.342;2023-05-13T03:46:03;9.07;;;6.43;;
21743;SDS011;11034;48.556;9.342;2023-05-13T03:48:31;9.15;;;6.93;;
21743;SDS011;11034;48.556;9.342;2023-05-13T03:50:59;10.77;;;6.65;;
21743;SDS011;11034;48.556;9.342;2023-05-13T03:53:27;7.72;;;6.45;;
21743;SDS011;11034;48.556;9.342;2023-05-13T03:55:56;7.50;;;5.95;;
21743;SDS011;11034;48.556;9.342;2023-05-13T03:58:25;7.80;;;5.75;;
21743;SDS011;11034;48.556;9.342;2023-05-13T04:00:53;6.80;;;5.45;;
21743;SDS011;11034;48.556;9.342;2023-05-13T04:03:21;6.68;;;5.32;;
21743;SDS011;11034;48.556;9.342;2023-05-13T04:05:50;10.30;;;5.40;;
21743;SDS011;11034;48.556;9.342;2023-05-13T04:08:18;7.05;;;5.80;;
21743;SDS011;11034;48.556;9.342;2023-05-13T04:10:46;8.73;;;5.57;;
21743;SDS011;11034;48.556;9.342;2023-05-13T04:13:14;6.70;;;5.40;;
21743;SDS011;11034;48.556;9.342;2023-05-13T04:15:44;7.07;;;5.47;;
21743;SDS011;11034;48.556;9.342;2023-05-13T04:18:12;7.35;;;5.88;;
21743;SDS011;11034;48.556;9.342;2023-05-13T04:20:40;6.60;;;5.35;;
21743;SDS011;11034;48.556;9.342;2023-05-13T04:23:08;6.50;;;5.75;;
21743;SDS011;11034;48.556;9.342;2023-05-13T04:25:36;6.55;;;5.35;;
21743;SDS011;11034;48.556;9.342;2023-05-13T04:28:04;7.30;;;5.15;;
21743;SDS011;11034;48.556;9.342;2023-05-13T04:30:33;7.68;;;5.80;;
21743;SDS011;11034;48.556;9.342;2023-05-13T04:33:10;7.90;;;5.30;;
21743;SDS011;11034;48.556;9.342;2023-05-13T04:35:42;6.88;;;5.43;;
21743;SDS011;11034;48.556;9.342;2023-05-13T04:38:10;6.88;;;5.63;;
21743;SDS011;11034;48.556;9.342;2023-05-13T04:40:39;7.15;;;6.20;;
21743;SDS011;11034;48.556;9.342;2023-05-13T04:43:07;7.90;;;5.55;;
21743;SDS011;11034;48.556;9.342;2023-05-13T04:45:35;6.57;;;5.25;;
21743;SDS011;11034;48.556;9.342;2023-05-13T04:48:05;7.10;;;5.55;;
21743;SDS011;11034;48.556;9.342;2023-05-13T04:50:33;8.48;;;5.75;;
21743;SDS011;11034;48.556;9.342;2023-05-13T04:53:02;6.95;;;5.43;;
21743;SDS011;11034;48.556;9.342;2023-05-13T04:55:30;5.90;;;5.22;;
21743;SDS011;11034;48.556;9.342;2023-05-13T04:57:58;7.65;;;6.00;;
21743;SDS011;11034;48.556;9.342;2023-05-13T05:00:26;12.88;;;6.32;;
21743;SDS011;11034;48.556;9.342;2023-05-13T05:02:54;7.47;;;5.80;;
21743;SDS011;11034;48.556;9.342;2023-05-13T05:05:24;6.20;;;5.40;;
21743;SDS011;11034;48.556;9.342;2023-05-13T05:07:52;6.78;;;5.28;;
21743;SDS011;11034;48.556;9.342;2023-05-13T05:10:28;9.55;;;5.40;;
21743;SDS011;11034;48.556;9.342;2023-05-13T05:12:56;10.02;;;5.22;;
21743;SDS011;11034;48.556;9.342;2023-05-13T05:15:25;6.10;;;5.18;;
21743;SDS011;11034;48.556;9.342;2023-05-13T05:17:55;6.90;;;4.60;;
21743;SDS011;11034;48.556;9.342;2023-05-13T05:20:25;6.10;;;4.60;;
21743;SDS011;11034;48.556;9.342;2023-05-13T05:22:53;7.32;;;4.25;;
21743;SDS011;11034;48.556;9.342;2023-05-13T05:25:21;8.65;;;4.85;;
21743;SDS011;11034;48.556;9.342;2023-05-13T05:27:50;6.75;;;4.57;;
21743;SDS011;11034;48.556;9.342;2023-05-13T05:30:18;6.03;;;4.82;;
21743;SDS011;11034;48.556;9.342;2023-05-13T05:32:46;5.68;;;4.75;;
21743;SDS011;11034;48.556;9.342;2023-05-13T05:35:15;8.70;;;4.88;;
21743;SDS011;11034;48.556;9.342;2023-05-13T05:37:46;6.28;;;5.30;;
21743;SDS011;11034;48.556;9.342;2023-05-13T05:40:14;5.60;;;4.53;;
21743;SDS011;11034;48.556;9.342;2023-05-13T05:42:42;5.22;;;4.70;;
21743;SDS011;11034;48.556;9.342;2023-05-13T05:45:11;9.07;;;4.63;;
21743;SDS011;11034;48.556;9.342;2023-05-13T05:47:41;5.68;;;4.53;;
21743;SDS011;11034;48.556;9.342;2023-05-13T05:50:10;7.05;;;4.43;;
21743;SDS011;11034;48.556;9.342;2023-05-13T05:52:38;5.18;;;4.30;;
21743;SDS011;11034;48.556;9.342;2023-05-13T05:55:08;7.72;;;5.15;;
21743;SDS011;11034;48.556;9.342;2023-05-13T05:57:36;7.25;;;4.63;;
21743;SDS011;11034;48.556;9.342;2023-05-13T06:00:05;7.45;;;4.50;;
21743;SDS011;11034;48.556;9.342;2023-05-13T06:02:34;7.43;;;4.80;;
21743;SDS011;11034;48.556;9.342;2023-05-13T06:05:02;5.43;;;4.80;;
21743;SDS011;11034;48.556;9.342;2023-05-13T06:07:31;7.43;;;4.60;;
21743;SDS011;11034;48.556;9.342;2023-05-13T06:09:59;7.60;;;4.35;;
21743;SDS011;11034;48.556;9.342;2023-05-13T06:12:28;6.57;;;4.55;;
21743;SDS011;11034;48.556;9.342;2023-05-13T06:14:57;5.22;;;4.30;;
21743;SDS011;11034;48.556;9.342;2023-05-13T06:17:25;6.82;;;4.10;;
21743;SDS011;11034;48.556;9.342;2023-05-13T06:19:53;7.07;;;4.85;;
21743;SDS011;11034;48.556;9.342;2023-05-13T06:22:22;5.85;;;4.63;;
21743;SDS011;11034;48.556;9.342;2023-05-13T06:24:50;6.15;;;4.68;;
21743;SDS011;11034;48.556;9.342;2023-05-13T06:27:18;6.35;;;4.65;;
21743;SDS011;11034;48.556;9.342;2023-05-13T06:29:48;8.30;;;5.47;;
21743;SDS011;11034;48.556;9.342;2023-05-13T06:32:17;7.47;;;5.30;;
21743;SDS011;11034;48.556;9.342;2023-05-13T06:34:45;7.18;;;5.10;;
21743;SDS011;11034;48.556;9.342;2023-05-13T06:37:14;8.00;;;4.72;;
21743;SDS011;11034;48.556;9.342;2023-05-13T06:39:42;6.28;;;4.47;;
21743;SDS011;11034;48.556;9.342;2023-05-13T06:42:10;6.80;;;4.72;;
21743;SDS011;11034;48.556;9.342;2023-05-13T06:44:39;5.78;;;4.22;;
21743;SDS011;11034;48.556;9.342;2023-05-13T06:47:09;6.25;;;4.50;;
21743;SDS011;11034;48.556;9.342;2023-05-13T06:49:41;5.60;;;4.90;;
21743;SDS011;11034;48.556;9.342;2023-05-13T06:52:09;5.47;;;4.78;;
21743;SDS011;11034;48.556;9.342;2023-05-13T06:54:37;6.78;;;4.70;;
21743;SDS011;11034;48.556;9.342;2023-05-13T06:57:05;6.30;;;4.55;;
21743;SDS011;11034;48.556;9.342;2023-05-13T06:59:34;6.10;;;4.80;;
21743;SDS011;11034;48.556;9.342;2023-05-13T07:02:04;5.40;;;4.20;;
21743;SDS011;11034;48.556;9.342;2023-05-13T07:04:36;5.55;;;4.38;;
21743;SDS011;11034;48.556;9.342;2023-05-13T07:07:04;7.65;;;4.65;;
21743;SDS011;11034;48.556;9.342;2023-05-13T07:09:32;8.20;;;4.93;;
21743;SDS011;11034;48.556;9.342;2023-05-13T07:12:00;6.05;;;5.07;;
21743;SDS011;11034;48.556;9.342;2023-05-13T07:14:28;8.65;;;5.43;;
21743;SDS011;11034;48.556;9.342;2023-05-13T07:16:56;6.72;;;4.60;;
21743;SDS011;11034;48.556;9.342;2023-05-13T07:19:24;5.72;;;4.85;;
21743;SDS011;11034;48.556;9.342;2023-05-13T07:21:54;9.30;;;4.68;;
21743;SDS011;11034;48.556;9.342;2023-05-13T07:24:22;9.85;;;5.43;;
21743;SDS011;11034;48.556;9.342;2023-05-13T07:26:50;9.35;;;5.18;;
21743;SDS011;11034;48.556;9.342;2023-05-13T07:29:18;5.85;;;4.50;;
21743;SDS011;11034;48.556;9.342;2023-05-13T07:31:46;8.90;;;4.82;;
21743;SDS011;11034;48.556;9.342;2023-05-13T07:34:14;6.97;;;4.93;;
21743;SDS011;11034;48.556;9.342;2023-05-13T07:36:42;9.13;;;5.43;;
21743;SDS011;11034;48.556;9.342;2023-05-13T07:39:13;9.80;;;5.03;;
21743;SDS011;11034;48.556;9.342;2023-05-13T07:41:41;10.77;;;5.25;;
21743;SDS011;11034;48.556;9.342;2023-05-13T07:44:09;6.85;;;5.00;;
21743;SDS011;11034;48.556;9.342;2023-05-13T07:46:38;8.05;;;5.15;;
21743;SDS011;11034;48.556;9.342;2023-05-13T07:49:06;9.15;;;5.57;;
21743;SDS011;11034;48.556;9.342;2023-05-13T07:51:34;8.43;;;4.95;;
21743;SDS011;11034;48.556;9.342;2023-05-13T07:54:02;7.20;;;5.35;;
21743;SDS011;11034;48.556;9.342;2023-05-13T07:56:32;10.30;;;5.50;;
21743;SDS011;11034;48.556;9.342;2023-05-13T07:59:00;8.07;;;5.57;;
21743;SDS011;11034;48.556;9.342;2023-05-13T08:01:28;10.80;;;6.10;;
21743;SDS011;11034;48.556;9.342;2023-05-13T08:03:56;7.40;;;5.60;;
21743;SDS011;11034;48.556;9.342;2023-05-13T08:06:26;8.13;;;5.30;;
21743;SDS011;11034;48.556;9.342;2023-05-13T08:08:54;9.43;;;5.90;;
21743;SDS011;11034;48.556;9.342;2023-05-13T08:11:22;11.30;;;5.40;;
21743;SDS011;11034;48.556;9.342;2023-05-13T08:13:52;8.20;;;5.85;;
21743;SDS011;11034;48.556;9.342;2023-05-13T08:16:21;8.48;;;5.78;;
21743;SDS011;11034;48.556;9.342;2023-05-13T08:18:49;8.70;;;5.80;;
21743;SDS011;11034;48.556;9.342;2023-05-13T08:21:17;8.40;;;5.78;;
21743;SDS011;11034;48.556;9.342;2023-05-13T08:23:45;8.73;;;5.72;;
21743;SDS011;11034;48.556;9.342;2023-05-13T08:26:13;9.80;;;5.75;;
21743;SDS011;11034;48.556;9.342;2023-05-13T08:28:41;7.78;;;5.55;;
21743;SDS011;11034;48.556;9.342;2023-05-13T08:31:11;9.35;;;5.65;;
21743;SDS011;11034;48.556;9.342;2023-05-13T08:33:39;11.02;;;5.55;;
21743;SDS011;11034;48.556;9.342;2023-05-13T08:36:08;11.77;;;5.60;;
21743;SDS011;11034;48.556;9.342;2023-05-13T08:38:36;7.65;;;5.20;;
21743;SDS011;11034;48.556;9.342;2023-05-13T08:41:04;8.23;;;5.55;;
21743;SDS011;11034;48.556;9.342;2023-05-13T08:43:33;8.88;;;5.47;;
21743;SDS011;11034;48.556;9.342;2023-05-13T08:46:05;8.25;;;5.53;;
21743;SDS011;11034;48.556;9.342;2023-05-13T08:48:39;7.75;;;5.38;;
21743;SDS011;11034;48.556;9.342;2023-05-13T08:51:15;6.88;;;5.07;;
21743;SDS011;11034;48.556;9.342;2023-05-13T08:53:43;8.07;;;5.63;;
21743;SDS011;11034;48.556;9.342;2023-05-13T08:56:12;11.05;;;5.60;;
21743;SDS011;11034;48.556;9.342;2023-05-13T08:58:40;9.15;;;5.38;;
21743;SDS011;11034;48.556;9.342;2023-05-13T09:01:08;8.75;;;5.88;;
21743;SDS011;11034;48.556;9.342;2023-05-13T09:03:36;8.98;;;5.43;;
21743;SDS011;11034;48.556;9.342;2023-05-13T09:06:17;9.48;;;5.90;;
21743;SDS011;11034;48.556;9.342;2023-05-13T09:08:46;10.48;;;5.35;;
21743;SDS011;11034;48.556;9.342;2023-05-13T09:11:14;10.20;;;5.70;;
21743;SDS011;11034;48.556;9.342;2023-05-13T09:13:43;9.45;;;5.90;;
21743;SDS011;11034;48.556;9.342;2023-05-13T09:16:11;8.43;;;5.72;;
21743;SDS011;11034;48.556;9.342;2023-05-13T09:18:41;8.95;;;6.03;;
21743;SDS011;11034;48.556;9.342;2023-05-13T09:21:22;11.60;;;6.25;;
21743;SDS011;11034;48.556;9.342;2023-05-13T09:23:54;10.80;;;6.07;;
21743;SDS011;11034;48.556;9.342;2023-05-13T09:26:28;8.15;;;6.15;;
21743;SDS011;11034;48.556;9.342;2023-05-13T09:31:44;8.05;;;5.40;;
21743;SDS011;11034;48.556;9.342;2023-05-13T09:34:15;11.10;;;5.05;;
21743;SDS011;11034;48.556;9.342;2023-05-13T09:37:01;9.65;;;5.60;;
21743;SDS011;11034;48.556;9.342;2023-05-13T09:39:30;10.45;;;5.35;;
21743;SDS011;11034;48.556;9.342;2023-05-13T09:42:00;7.35;;;5.30;;
21743;SDS011;11034;48.556;9.342;2023-05-13T09:44:31;6.45;;;5.20;;
21743;SDS011;11034;48.556;9.342;2023-05-13T09:46:59;6.47;;;5.18;;
21743;SDS011;11034;48.556;9.342;2023-05-13T09:49:30;7.38;;;5.07;;
21743;SDS011;11034;48.556;9.342;2023-05-13T09:51:59;6.30;;;5.13;;
21743;SDS011;11034;48.556;9.342;2023-05-13T09:54:32;6.95;;;5.63;;
21743;SDS011;11034;48.556;9.342;2023-05-13T09:57:02;6.55;;;4.93;;
21743;SDS011;11034;48.556;9.342;2023-05-13T09:59:31;6.68;;;4.35;;
21743;SDS011;11034;48.556;9.342;2023-05-13T10:02:00;7.22;;;4.80;;
21743;SDS011;11034;48.556;9.342;2023-05-13T10:04:35;9.00;;;5.28;;
21743;SDS011;11034;48.556;9.342;2023-05-13T10:07:06;5.78;;;4.57;;
21743;SDS011;11034;48.556;9.342;2023-05-13T10:09:36;6.10;;;4.78;;
21743;SDS011;11034;48.556;9.342;2023-05-13T10:12:06;5.38;;;4.50;;
21743;SDS011;11034;48.556;9.342;2023-05-13T10:14:36;8.98;;;4.82;;
21743;SDS011;11034;48.556;9.342;2023-05-13T10:17:04;6.57;;;5.15;;
21743;SDS011;11034;48.556;9.342;2023-05-13T10:19:35;5.88;;;4.22;;
21743;SDS011;11034;48.556;9.342;2023-05-13T10:22:04;5.78;;;4.53;;
21743;SDS011;11034;48.556;9.342;2023-05-13T10:24:35;5.07;;;4.53;;
21743;SDS011;11034;48.556;9.342;2023-05-13T10:27:05;5.20;;;4.43;;
21743;SDS011;11034;48.556;9.342;2023-05-13T10:29:34;4.72;;;4.20;;
21743;SDS011;11034;48.556;9.342;2023-05-13T10:32:04;5.65;;;4.57;;
21743;SDS011;11034;48.556;9.342;2023-05-13T10:34:35;4.60;;;4.00;;
21743;SDS011;11034;48.556;9.342;2023-05-13T10:37:12;5.75;;;4.20;;
21743;SDS011;11034;48.556;9.342;2023-05-13T10:42:54;4.55;;;4.05;;
21743;SDS011;11034;48.556;9.342;2023-05-13T10:45:36;4.65;;;4.10;;
21743;SDS011;11034;48.556;9.342;2023-05-13T10:48:04;4.35;;;3.65;;
21743;SDS011;11034;48.556;9.342;2023-05-13T10:50:36;5.50;;;4.20;;
21743;SDS011;11034;48.556;9.342;2023-05-13T10:53:08;5.28;;;4.00;;
21743;SDS011;11034;48.556;9.342;2023-05-13T10:55:44;4.93;;;4.18;;
21743;SDS011;11034;48.556;9.342;2023-05-13T10:58:12;4.97;;;4.07;;
21743;SDS011;11034;48.556;9.342;2023-05-13T11:00:42;4.05;;;3.65;;
21743;SDS011;11034;48.556;9.342;2023-05-13T11:03:11;4.07;;;3.72;;
21743;SDS011;11034;48.556;9.342;2023-05-13T11:05:44;9.05;;;4.20;;
21743;SDS011;11034;48.556;9.342;2023-05-13T11:11:02;4.10;;;3.70;;
21743;SDS011;11034;48.556;9.342;2023-05-13T11:13:42;5.65;;;3.45;;
21743;SDS011;11034;48.556;9.342;2023-05-13T11:16:11;3.83;;;3.15;;
21743;SDS011;11034;48.556;9.342;2023-05-13T11:18:40;4.00;;;3.10;;
21743;SDS011;11034;48.556;9.342;2023-05-13T11:21:09;3.50;;;3.20;;
21743;SDS011;11034;48.556;9.342;2023-05-13T11:23:49;3.80;;;3.33;;
21743;SDS011;11034;48.556;9.342;2023-05-13T11:26:18;4.07;;;3.63;;
21743;SDS011;11034;48.556;9.342;2023-05-13T11:28:57;3.70;;;3.30;;
21743;SDS011;11034;48.556;9.342;2023-05-13T11:31:26;4.75;;;3.85;;
21743;SDS011;11034;48.556;9.342;2023-05-13T11:34:05;3.90;;;3.53;;
21743;SDS011;11034;48.556;9.342;2023-05-13T11:36:36;4.10;;;3.70;;
21743;SDS011;11034;48.556;9.342;2023-05-13T11:39:06;4.07;;;3.30;;
21743;SDS011;11034;48.556;9.342;2023-05-13T11:41:36;5.03;;;3.80;;
21743;SDS011;11034;48.556;9.342;2023-05-13T11:44:07;3.92;;;3.20;;
21743;SDS011;11034;48.556;9.342;2023-05-13T11:46:35;4.80;;;3.75;;
21743;SDS011;11034;48.556;9.342;2023-05-13T11:49:03;4.10;;;3.33;;
21743;SDS011;11034;48.556;9.342;2023-05-13T11:51:32;4.53;;;3.30;;
21743;SDS011;11034;48.556;9.342;2023-05-13T11:54:02;3.70;;;3.30;;
21743;SDS011;11034;48.556;9.342;2023-05-13T11:56:31;4.57;;;3.72;;
21743;SDS011;11034;48.556;9.342;2023-05-13T11:59:12;6.03;;;3.70;;
21743;SDS011;11034;48.556;9.342;2023-05-13T12:01:40;4.80;;;3.72;;
21743;SDS011;11034;48.556;9.342;2023-05-13T12:04:09;5.72;;;3.97;;
21743;SDS011;11034;48.556;9.342;2023-05-13T12:06:42;4.28;;;3.70;;
21743;SDS011;11034;48.556;9.342;2023-05-13T12:09:13;4.82;;;3.50;;
21743;SDS011;11034;48.556;9.342;2023-05-13T12:11:41;6.07;;;3.92;;
21743;SDS011;11034;48.556;9.342;2023-05-13T12:14:09;4.28;;;3.88;;
21743;SDS011;11034;48.556;9.342;2023-05-13T12:16:37;5.93;;;3.88;;
21743;SDS011;11034;48.556;9.342;2023-05-13T12:19:07;4.30;;;3.70;;
21743;SDS011;11034;48.556;9.342;2023-05-13T12:21:36;4.68;;;3.65;;
21743;SDS011;11034;48.556;9.342;2023-05-13T12:24:16;4.88;;;3.60;;
21743;SDS011;11034;48.556;9.342;2023-05-13T12:26:45;4.32;;;3.45;;
21743;SDS011;11034;48.556;9.342;2023-05-13T12:29:13;21.80;;;4.50;;
21743;SDS011;11034;48.556;9.342;2023-05-13T12:31:41;6.63;;;3.40;;
21743;SDS011;11034;48.556;9.342;2023-05-13T12:34:32;6.70;;;4.22;;
21743;SDS011;11034;48.556;9.342;2023-05-13T12:37:10;4.25;;;3.85;;
21743;SDS011;11034;48.556;9.342;2023-05-13T12:39:40;4.13;;;3.63;;
21743;SDS011;11034;48.556;9.342;2023-05-13T12:42:12;4.88;;;3.58;;
21743;SDS011;11034;48.556;9.342;2023-05-13T12:44:41;4.32;;;3.92;;
21743;SDS011;11034;48.556;9.342;2023-05-13T12:47:11;4.85;;;4.30;;
21743;SDS011;11034;48.556;9.342;2023-05-13T12:49:51;5.28;;;4.40;;
21743;SDS011;11034;48.556;9.342;2023-05-13T12:52:20;4.53;;;3.90;;
21743;SDS011;11034;48.556;9.342;2023-05-13T12:54:49;5.35;;;3.88;;
21743;SDS011;11034;48.556;9.342;2023-05-13T12:57:18;5.72;;;4.10;;
21743;SDS011;11034;48.556;9.342;2023-05-13T12:59:46;5.88;;;4.30;;
21743;SDS011;11034;48.556;9.342;2023-05-13T13:02:14;4.68;;;4.00;;
21743;SDS011;11034;48.556;9.342;2023-05-13T13:04:42;6.30;;;4.43;;
21743;SDS011;11034;48.556;9.342;2023-05-13T13:07:10;4.60;;;4.10;;
21743;SDS011;11034;48.556;9.342;2023-05-13T13:09:40;4.43;;;3.72;;
21743;SDS011;11034;48.556;9.342;2023-05-13T13:12:09;4.53;;;3.90;;
21743;SDS011;11034;48.556;9.342;2023-05-13T13:14:37;5.50;;;3.78;;
21743;SDS011;11034;48.556;9.342;2023-05-13T13:17:05;4.93;;;4.10;;
21743;SDS011;11034;48.556;9.342;2023-05-13T13:19:34;5.20;;;4.15;;
21743;SDS011;11034;48.556;9.342;2023-05-13T13:22:02;4.75;;;3.95;;
21743;SDS011;11034;48.556;9.342;2023-05-13T13:24:30;6.68;;;4.47;;
21743;SDS011;11034;48.556;9.342;2023-05-13T13:26:58;5.82;;;4.40;;
21743;SDS011;11034;48.556;9.342;2023-05-13T13:29:28;4.53;;;4.13;;
21743;SDS011;11034;48.556;9.342;2023-05-13T13:31:56;5.10;;;3.88;;
21743;SDS011;11034;48.556;9.342;2023-05-13T13:34:24;5.47;;;4.85;;
21743;SDS011;11034;48.556;9.342;2023-05-13T13:36:52;8.35;;;4.60;;
21743;SDS011;11034;48.556;9.342;2023-05-13T13:39:20;5.95;;;4.63;;
21743;SDS011;11034;48.556;9.342;2023-05-13T13:41:48;5.68;;;4.57;;
21743;SDS011;11034;48.556;9.342;2023-05-13T13:44:16;5.80;;;4.38;;
21743;SDS011;11034;48.556;9.342;2023-05-13T13:46:46;5.38;;;4.20;;
21743;SDS011;11034;48.556;9.342;2023-05-13T13:49:14;7.13;;;5.15;;
21743;SDS011;11034;48.556;9.342;2023-05-13T13:51:49;6.10;;;4.82;;
21743;SDS011;11034;48.556;9.342;2023-05-13T13:54:17;5.97;;;5.00;;
21743;SDS011;11034;48.556;9.342;2023-05-13T13:56:46;5.80;;;4.50;;
21743;SDS011;11034;48.556;9.342;2023-05-13T13:59:14;5.05;;;4.55;;
21743;SDS011;11034;48.556;9.342;2023-05-13T14:01:45;6.18;;;5.05;;
21743;SDS011;11034;48.556;9.342;2023-05-13T14:04:14;5.30;;;4.20;;
21743;SDS011;11034;48.556;9.342;2023-05-13T14:06:45;7.95;;;4.85;;
21743;SDS011;11034;48.556;9.342;2023-05-13T14:09:13;7.40;;;4.90;;
21743;SDS011;11034;48.556;9.342;2023-05-13T14:11:42;7.05;;;5.10;;
21743;SDS011;11034;48.556;9.342;2023-05-13T14:14:10;6.13;;;5.07;;
21743;SDS011;11034;48.556;9.342;2023-05-13T14:16:38;6.65;;;5.55;;
21743;SDS011;11034;48.556;9.342;2023-05-13T14:19:09;11.82;;;5.75;;
21743;SDS011;11034;48.556;9.342;2023-05-13T14:21:37;6.18;;;4.90;;
21743;SDS011;11034;48.556;9.342;2023-05-13T14:24:05;7.28;;;4.85;;
21743;SDS011;11034;48.556;9.342;2023-05-13T14:26:37;6.43;;;4.57;;
21743;SDS011;11034;48.556;9.342;2023-05-13T14:29:05;5.88;;;4.70;;
21743;SDS011;11034;48.556;9.342;2023-05-13T14:31:33;7.72;;;4.85;;
21743;SDS011;11034;48.556;9.342;2023-05-13T14:34:01;5.38;;;4.72;;
21743;SDS011;11034;48.556;9.342;2023-05-13T14:36:34;6.15;;;5.13;;
21743;SDS011;11034;48.556;9.342;2023-05-13T14:39:02;4.88;;;4.38;;
21743;SDS011;11034;48.556;9.342;2023-05-13T14:41:30;5.68;;;4.63;;
21743;SDS011;11034;48.556;9.342;2023-05-13T14:43:58;6.43;;;5.05;;
21743;SDS011;11034;48.556;9.342;2023-05-13T14:46:27;5.45;;;4.70;;
21743;SDS011;11034;48.556;9.342;2023-05-13T14:48:55;5.75;;;4.30;;
21743;SDS011;11034;48.556;9.342;2023-05-13T14:51:23;6.05;;;4.25;;
21743;SDS011;11034;48.556;9.342;2023-05-13T14:53:52;4.95;;;4.38;;
21743;SDS011;11034;48.556;9.342;2023-05-13T14:56:21;5.43;;;3.95;;
21743;SDS011;11034;48.556;9.342;2023-05-13T14:58:50;5.15;;;4.43;;
21743;SDS011;11034;48.556;9.342;2023-05-13T15:01:18;5.00;;;3.85;;
21743;SDS011;11034;48.556;9.342;2023-05-13T15:03:46;4.55;;;3.80;;
21743;SDS011;11034;48.556;9.342;2023-05-13T15:06:14;4.97;;;3.80;;
21743;SDS011;11034;48.556;9.342;2023-05-13T15:08:43;4.97;;;3.42;;